createdAt,value
2017-12-27T00:02:27.459Z,44.07
2017-12-27T00:05:00.881Z,40.20
2017-12-27T00:07:34.863Z,43.33
2017-12-27T00:10:08.082Z,40.47
2017-12-27T00:12:41.940Z,44.27
2017-12-27T00:15:15.918Z,43.70
2017-12-27T00:17:49.048Z,43.67
2017-12-27T00:20:22.271Z,43.10
2017-12-27T00:22:56.276Z,45.13
2017-12-27T00:25:29.591Z,43.60
2017-12-27T00:34:01.792Z,39.37
2017-12-27T00:36:30.128Z,40.00
2017-12-27T00:38:57.910Z,38.10
2017-12-27T00:41:25.466Z,39.00
2017-12-27T00:43:53.881Z,39.00
2017-12-27T00:46:22.718Z,40.00
2017-12-27T00:48:50.683Z,40.10
2017-12-27T00:51:19.064Z,39.97
2017-12-27T00:53:49.288Z,42.60
2017-12-27T00:56:17.653Z,43.67
2017-12-27T00:58:45.991Z,44.77
2017-12-27T01:01:14.787Z,41.67
2017-12-27T01:03:42.982Z,38.97
2017-12-27T01:06:11.188Z,39.20
2017-12-27T01:08:39.423Z,38.87
2017-12-27T01:11:07.724Z,36.17
2017-12-27T01:13:35.384Z,39.80
2017-12-27T01:16:03.389Z,38.27
2017-12-27T01:18:31.854Z,36.00
2017-12-27T01:20:59.420Z,36.70
2017-12-27T01:23:27.107Z,35.40
2017-12-27T01:25:54.845Z,35.00
2017-12-27T01:28:23.531Z,34.90
2017-12-27T01:30:51.142Z,33.33
2017-12-27T01:33:19.552Z,33.40
2017-12-27T01:35:47.082Z,31.80
2017-12-27T01:38:15.304Z,32.23
2017-12-27T01:40:44.147Z,31.23
2017-12-27T01:43:12.370Z,31.20
2017-12-27T01:45:40.705Z,28.20
2017-12-27T01:48:09.428Z,27.57
2017-12-27T01:50:37.038Z,27.17
2017-12-27T01:53:04.611Z,28.53
2017-12-27T01:55:32.158Z,28.10
2017-12-27T01:57:59.695Z,27.70
2017-12-27T02:00:27.318Z,26.97
2017-12-27T02:02:55.798Z,30.50
2017-12-27T02:05:23.729Z,30.20
2017-12-27T02:07:51.268Z,31.37
2017-12-27T02:10:19.338Z,30.70
2017-12-27T02:12:46.926Z,28.90
2017-12-27T02:15:15.039Z,29.50
2017-12-27T02:17:42.597Z,28.80
2017-12-27T02:20:11.067Z,29.37
2017-12-27T02:22:38.608Z,30.30
2017-12-27T02:25:08.029Z,26.50
2017-12-27T02:27:35.842Z,29.63
2017-12-27T02:30:03.505Z,30.80
2017-12-27T02:32:33.518Z,28.73
2017-12-27T02:35:01.990Z,28.57
2017-12-27T02:37:29.519Z,28.20
2017-12-27T02:40:26.761Z,30.47
2017-12-27T02:42:54.416Z,29.97
2017-12-27T02:45:22.609Z,28.70
2017-12-27T02:47:50.191Z,26.97
2017-12-27T02:50:17.769Z,31.40
2017-12-27T02:52:46.150Z,30.37
2017-12-27T02:55:15.959Z,27.60
2017-12-27T02:57:44.428Z,29.03
2017-12-27T03:00:12.233Z,31.07
2017-12-27T03:02:42.130Z,28.57
2017-12-27T03:05:09.653Z,30.93
2017-12-27T03:07:37.933Z,30.27
2017-12-27T03:10:06.324Z,28.63
2017-12-27T03:12:35.521Z,31.07
2017-12-27T03:15:03.193Z,30.17
2017-12-27T03:17:31.553Z,29.67
2017-12-27T03:19:59.097Z,29.20
2017-12-27T03:22:26.650Z,31.33
2017-12-27T03:24:54.827Z,30.50
2017-12-27T03:27:22.445Z,29.80
2017-12-27T03:29:50.884Z,28.60
2017-12-27T03:32:18.409Z,30.03
2017-12-27T03:34:46.722Z,31.50
2017-12-27T03:37:14.548Z,29.30
2017-12-27T03:39:42.326Z,28.43
2017-12-27T03:42:10.474Z,30.10
2017-12-27T03:44:38.026Z,30.97
2017-12-27T03:47:06.098Z,29.57
2017-12-27T03:49:34.451Z,32.40
2017-12-27T03:52:02.550Z,29.47
2017-12-27T03:54:32.243Z,29.17
2017-12-27T03:56:59.791Z,29.53
2017-12-27T03:59:27.352Z,29.67
2017-12-27T04:01:55.386Z,27.50
2017-12-27T04:04:22.922Z,28.27
2017-12-27T04:06:50.844Z,27.83
2017-12-27T04:09:19.904Z,26.77
2017-12-27T04:11:47.441Z,27.53
2017-12-27T04:14:15.543Z,27.07
2017-12-27T04:16:43.135Z,28.63
2017-12-27T04:19:10.689Z,27.20
2017-12-27T04:21:38.320Z,26.50
2017-12-27T04:24:06.315Z,25.70
2017-12-27T04:26:34.347Z,27.40
2017-12-27T04:29:01.929Z,28.10
2017-12-27T04:31:30.123Z,27.67
2017-12-27T04:33:58.188Z,26.60
2017-12-27T04:36:25.781Z,26.47
2017-12-27T04:38:53.975Z,28.97
2017-12-27T04:41:23.155Z,27.53
2017-12-27T04:43:50.770Z,26.43
2017-12-27T04:46:18.802Z,28.67
2017-12-27T04:48:47.096Z,29.27
2017-12-27T04:51:14.880Z,29.00
2017-12-27T04:53:42.459Z,28.27
2017-12-27T04:56:10.915Z,28.83
2017-12-27T04:58:38.471Z,27.13
2017-12-27T05:01:06.400Z,30.80
2017-12-27T05:03:34.691Z,24.33
2017-12-27T05:06:02.848Z,30.80
2017-12-27T05:08:31.268Z,28.77
2017-12-27T05:10:58.830Z,27.77
2017-12-27T05:13:26.583Z,27.90
2017-12-27T05:15:54.183Z,26.40
2017-12-27T05:18:22.668Z,26.53
2017-12-27T05:20:50.193Z,28.20
2017-12-27T05:23:17.781Z,28.47
2017-12-27T05:25:46.335Z,29.00
2017-12-27T05:28:13.932Z,29.90
2017-12-27T05:30:43.433Z,26.70
2017-12-27T05:33:10.992Z,27.67
2017-12-27T05:35:38.873Z,26.50
2017-12-27T05:38:07.048Z,28.27
2017-12-27T05:40:36.126Z,26.47
2017-12-27T05:43:04.239Z,25.80
2017-12-27T05:45:31.813Z,21.50
2017-12-27T05:48:00.180Z,19.83
2017-12-27T05:50:27.889Z,20.20
2017-12-27T05:52:55.537Z,19.13
2017-12-27T05:55:23.439Z,19.87
2017-12-27T05:57:51.364Z,19.93
2017-12-27T06:00:19.539Z,21.90
2017-12-27T06:02:47.864Z,20.10
2017-12-27T06:05:16.084Z,21.03
2017-12-27T06:07:44.354Z,20.23
2017-12-27T06:10:13.107Z,19.93
2017-12-27T06:12:41.461Z,20.03
2017-12-27T06:15:09.944Z,20.67
2017-12-27T06:17:38.401Z,17.87
2017-12-27T06:20:05.970Z,17.87
2017-12-27T06:22:34.026Z,18.10
2017-12-27T06:25:01.955Z,16.67
2017-12-27T06:27:30.802Z,17.40
2017-12-27T06:29:59.165Z,19.00
2017-12-27T06:32:28.513Z,16.23
2017-12-27T06:34:56.022Z,17.03
2017-12-27T06:37:23.638Z,18.70
2017-12-27T06:39:51.223Z,16.07
2017-12-27T06:42:19.242Z,16.63
2017-12-27T06:44:47.667Z,15.10
2017-12-27T06:47:15.254Z,18.43
2017-12-27T06:49:43.603Z,16.00
2017-12-27T06:52:11.164Z,16.30
2017-12-27T06:54:39.099Z,17.93
2017-12-27T06:57:07.138Z,16.93
2017-12-27T06:59:34.700Z,16.93
2017-12-27T07:02:02.269Z,17.47
2017-12-27T07:04:29.793Z,17.57
2017-12-27T07:06:58.881Z,15.47
2017-12-27T07:09:26.456Z,15.30
2017-12-27T07:11:55.544Z,16.87
2017-12-27T07:14:23.892Z,15.80
2017-12-27T07:16:52.064Z,16.73
2017-12-27T07:19:20.369Z,17.87
2017-12-27T07:21:48.003Z,18.50
2017-12-27T07:24:16.183Z,17.73
2017-12-27T07:26:44.718Z,16.53
2017-12-27T07:29:13.923Z,17.63
2017-12-27T07:31:41.945Z,19.23
2017-12-27T07:34:09.644Z,18.83
2017-12-27T07:36:38.065Z,21.03
2017-12-27T07:39:06.887Z,20.80
2017-12-27T07:41:36.202Z,21.57
2017-12-27T07:44:03.756Z,22.00
2017-12-27T07:46:32.528Z,20.20
2017-12-27T07:49:01.477Z,20.63
2017-12-27T07:51:30.069Z,22.40
2017-12-27T07:53:58.373Z,21.57
2017-12-27T07:56:25.893Z,20.97
2017-12-27T07:58:53.445Z,20.97
2017-12-27T08:01:21.428Z,22.97
2017-12-27T08:03:48.974Z,22.20
2017-12-27T08:06:16.505Z,22.33
2017-12-27T08:08:44.927Z,21.67
2017-12-27T08:11:13.462Z,23.03
2017-12-27T08:13:42.600Z,22.20
2017-12-27T08:16:10.842Z,22.97
2017-12-27T08:18:38.720Z,35.83
2017-12-27T08:21:07.295Z,32.63
2017-12-27T08:23:34.864Z,28.10
2017-12-27T08:26:02.435Z,30.27
2017-12-27T08:28:31.666Z,22.27
2017-12-27T08:30:59.210Z,25.23
2017-12-27T08:33:26.775Z,22.97
2017-12-27T08:35:54.495Z,19.17
2017-12-27T08:38:22.651Z,18.90
2017-12-27T08:40:50.234Z,21.23
2017-12-27T08:43:19.042Z,20.83
2017-12-27T08:45:47.298Z,21.27
2017-12-27T08:48:15.670Z,20.40
2017-12-27T08:50:43.254Z,20.43
2017-12-27T08:53:11.040Z,19.37
2017-12-27T08:55:38.598Z,18.83
2017-12-27T08:58:06.759Z,22.70
2017-12-27T09:00:35.157Z,26.77
2017-12-27T09:03:02.734Z,23.97
2017-12-27T09:05:30.910Z,30.30
2017-12-27T09:07:58.985Z,30.93
2017-12-27T09:10:26.563Z,26.90
2017-12-27T09:12:55.492Z,22.33
2017-12-27T09:15:24.137Z,20.53
2017-12-27T09:17:52.388Z,18.70
2017-12-27T09:20:19.972Z,19.30
2017-12-27T09:22:47.524Z,20.20
2017-12-27T09:25:15.412Z,21.63
2017-12-27T09:27:43.483Z,18.87
2017-12-27T09:30:12.285Z,21.57
2017-12-27T09:32:40.975Z,20.23
2017-12-27T09:35:09.931Z,18.17
2017-12-27T09:37:38.437Z,18.70
2017-12-27T09:40:07.868Z,16.27
2017-12-27T09:42:35.459Z,18.23
2017-12-27T09:45:03.069Z,17.80
2017-12-27T09:47:31.285Z,16.47
2017-12-27T09:49:59.863Z,15.70
2017-12-27T09:52:27.471Z,15.33
2017-12-27T09:54:56.681Z,16.20
2017-12-27T09:57:26.449Z,16.30
2017-12-27T09:59:54.360Z,16.30
2017-12-27T10:02:21.918Z,16.77
2017-12-27T10:04:49.538Z,17.60
2017-12-27T10:07:17.193Z,19.60
2017-12-27T10:09:44.832Z,19.00
2017-12-27T10:12:13.150Z,18.60
2017-12-27T10:14:41.466Z,20.80
2017-12-27T10:17:09.039Z,18.43
2017-12-27T10:19:37.449Z,18.03
2017-12-27T10:22:05.169Z,17.30
2017-12-27T10:24:33.492Z,16.80
2017-12-27T10:27:01.060Z,15.70
2017-12-27T10:29:28.645Z,17.30
2017-12-27T10:31:56.183Z,15.40
2017-12-27T10:34:23.758Z,14.57
2017-12-27T10:36:51.432Z,16.73
2017-12-27T10:39:19.039Z,15.77
2017-12-27T10:41:46.600Z,15.67
2017-12-27T10:44:14.171Z,15.90
2017-12-27T10:46:41.760Z,14.10
2017-12-27T10:49:09.305Z,13.03
2017-12-27T10:51:36.863Z,12.40
2017-12-27T10:54:04.391Z,12.50
2017-12-27T10:56:31.946Z,11.77
2017-12-27T10:58:59.498Z,10.90
2017-12-27T11:01:27.042Z,9.60
2017-12-27T11:03:54.549Z,9.00
2017-12-27T11:06:22.103Z,9.90
2017-12-27T11:08:49.663Z,9.20
2017-12-27T11:11:17.305Z,8.97
2017-12-27T11:13:44.906Z,8.20
2017-12-27T11:16:12.441Z,7.80
2017-12-27T11:18:39.997Z,8.40
2017-12-27T11:21:07.873Z,7.40
2017-12-27T11:23:35.510Z,9.67
2017-12-27T11:26:03.808Z,6.93
2017-12-27T11:28:31.325Z,5.83
2017-12-27T11:30:58.930Z,5.90
2017-12-27T11:33:26.469Z,6.57
2017-12-27T11:35:54.020Z,5.63
2017-12-27T11:38:22.330Z,6.00
2017-12-27T11:40:49.842Z,5.20
2017-12-27T11:43:17.415Z,4.80
2017-12-27T11:45:45.707Z,4.00
2017-12-27T11:48:13.284Z,3.63
2017-12-27T11:50:40.807Z,3.10
2017-12-27T11:53:09.111Z,3.33
2017-12-27T11:55:36.661Z,3.93
2017-12-27T11:58:04.213Z,3.33
2017-12-27T12:00:31.832Z,2.80
2017-12-27T12:02:59.421Z,3.57
2017-12-27T12:05:27.754Z,3.40
2017-12-27T12:07:55.286Z,3.00
2017-12-27T12:10:22.893Z,3.50
2017-12-27T12:12:50.455Z,3.10
2017-12-27T12:15:17.989Z,3.03
2017-12-27T12:17:45.599Z,4.27
2017-12-27T12:20:13.139Z,3.90
2017-12-27T12:22:40.707Z,3.60
2017-12-27T12:25:08.387Z,3.90
2017-12-27T12:27:35.958Z,3.80
2017-12-27T12:30:04.023Z,3.60
2017-12-27T12:32:32.315Z,4.73
2017-12-27T12:34:59.874Z,5.50
2017-12-27T12:37:27.422Z,7.20
2017-12-27T12:39:55.726Z,5.60
2017-12-27T12:42:23.291Z,4.83
2017-12-27T12:44:50.803Z,4.40
2017-12-27T12:47:18.370Z,4.07
2017-12-27T12:49:45.933Z,3.70
2017-12-27T12:52:13.464Z,4.10
2017-12-27T12:54:41.051Z,4.10
2017-12-27T12:57:09.351Z,4.37
2017-12-27T12:59:36.866Z,3.63
2017-12-27T13:02:05.958Z,4.80
2017-12-27T13:04:33.515Z,4.30
2017-12-27T13:07:01.066Z,4.50
2017-12-27T13:09:28.583Z,4.10
2017-12-27T13:11:56.168Z,4.30
2017-12-27T13:14:23.744Z,4.30
2017-12-27T13:16:51.298Z,4.37
2017-12-27T13:19:18.850Z,4.90
2017-12-27T13:21:46.426Z,5.00
2017-12-27T13:24:14.054Z,4.53
2017-12-27T13:26:41.595Z,5.70
2017-12-27T13:29:09.142Z,5.97
2017-12-27T13:31:36.702Z,5.87
2017-12-27T13:34:05.024Z,5.87
2017-12-27T13:36:32.532Z,5.10
2017-12-27T13:39:00.071Z,4.77
2017-12-27T13:41:27.616Z,4.80
2017-12-27T13:43:55.202Z,4.90
2017-12-27T13:46:22.768Z,4.67
2017-12-27T13:48:51.086Z,4.33
2017-12-27T13:51:18.650Z,4.47
2017-12-27T13:53:46.187Z,4.33
2017-12-27T13:56:13.761Z,4.30
2017-12-27T13:58:41.346Z,3.63
2017-12-27T14:01:08.905Z,3.33
2017-12-27T14:03:36.453Z,3.00
2017-12-27T14:06:03.998Z,3.00
2017-12-27T14:08:32.123Z,3.23
2017-12-27T14:10:59.694Z,3.17
2017-12-27T14:13:27.308Z,3.10
2017-12-27T14:15:54.842Z,2.93
2017-12-27T14:18:22.411Z,3.00
2017-12-27T14:20:49.954Z,3.10
2017-12-27T14:23:17.504Z,3.10
2017-12-27T14:25:45.790Z,3.50
2017-12-27T14:28:13.299Z,2.20
2017-12-27T14:30:40.857Z,3.33
2017-12-27T14:33:08.389Z,2.67
2017-12-27T14:35:35.927Z,3.00
2017-12-27T14:38:03.515Z,2.73
2017-12-27T14:40:31.088Z,3.10
2017-12-27T14:42:58.756Z,2.90
2017-12-27T14:45:26.265Z,2.90
2017-12-27T14:47:53.802Z,3.17
2017-12-27T14:50:21.350Z,3.60
2017-12-27T14:52:48.893Z,3.40
2017-12-27T14:55:16.462Z,4.10
2017-12-27T14:57:44.063Z,3.90
2017-12-27T15:00:12.397Z,3.93
2017-12-27T15:02:39.913Z,3.53
2017-12-27T15:05:08.905Z,3.53
2017-12-27T15:07:36.423Z,3.50
2017-12-27T15:10:04.654Z,3.30
2017-12-27T15:12:32.238Z,3.63
2017-12-27T15:15:00.099Z,3.40
2017-12-27T15:17:27.659Z,3.03
2017-12-27T15:19:55.259Z,3.70
2017-12-27T15:22:22.788Z,3.53
2017-12-27T15:24:50.323Z,3.70
2017-12-27T15:27:17.886Z,3.63
2017-12-27T15:29:46.711Z,3.43
2017-12-27T15:32:14.622Z,3.30
2017-12-27T15:34:42.223Z,3.10
2017-12-27T15:37:09.758Z,2.80
2017-12-27T15:39:37.363Z,3.50
2017-12-27T15:42:04.891Z,3.13
2017-12-27T15:44:32.413Z,3.67
2017-12-27T15:47:00.070Z,3.40
2017-12-27T15:49:28.443Z,3.47
2017-12-27T15:51:56.816Z,3.70
2017-12-27T15:54:24.366Z,3.20
2017-12-27T15:56:51.964Z,4.13
2017-12-27T15:59:19.531Z,3.70
2017-12-27T16:01:47.113Z,4.87
2017-12-27T16:04:14.711Z,3.90
2017-12-27T16:06:42.247Z,3.80
2017-12-27T16:09:09.790Z,4.27
2017-12-27T16:11:37.371Z,4.50
2017-12-27T16:14:04.948Z,3.90
2017-12-27T16:16:32.501Z,4.40
2017-12-27T16:19:00.095Z,4.77
2017-12-27T16:21:28.505Z,5.50
2017-12-27T16:23:56.093Z,5.80
2017-12-27T16:26:23.674Z,5.27
2017-12-27T16:28:51.228Z,4.97
2017-12-27T16:31:18.783Z,5.00
2017-12-27T16:33:46.333Z,4.77
2017-12-27T16:36:13.961Z,4.83
2017-12-27T16:38:41.526Z,4.70
2017-12-27T16:41:09.071Z,4.87
2017-12-27T16:43:36.619Z,4.63
2017-12-27T16:46:04.216Z,5.00
2017-12-27T16:48:31.767Z,4.70
2017-12-27T16:50:59.337Z,5.40
2017-12-27T16:53:27.311Z,4.80
2017-12-27T16:55:54.838Z,5.50
2017-12-27T16:58:22.423Z,5.80
2017-12-27T17:00:50.117Z,5.50
2017-12-27T17:03:18.504Z,5.73
2017-12-27T17:05:46.085Z,6.07
2017-12-27T17:08:14.444Z,5.60
2017-12-27T17:10:41.966Z,6.50
2017-12-27T17:13:09.492Z,6.00
2017-12-27T17:15:37.057Z,6.03
2017-12-27T17:18:04.606Z,5.40
2017-12-27T17:20:32.164Z,5.70
2017-12-27T17:23:01.430Z,5.03
2017-12-27T17:25:29.018Z,5.47
2017-12-27T17:27:57.352Z,5.50
2017-12-27T17:30:25.155Z,5.53
2017-12-27T17:32:52.746Z,5.87
2017-12-27T17:35:20.315Z,6.23
2017-12-27T17:37:47.874Z,6.20
2017-12-27T17:40:15.448Z,6.10
2017-12-27T17:42:42.974Z,7.70
2017-12-27T17:45:10.521Z,7.03
2017-12-27T17:47:38.919Z,6.40
2017-12-27T17:50:08.678Z,6.90
2017-12-27T17:52:36.265Z,6.63
2017-12-27T17:55:04.631Z,5.97
2017-12-27T17:57:32.911Z,6.27
2017-12-27T18:00:00.425Z,6.23
2017-12-27T18:02:28.010Z,5.20
2017-12-27T18:04:55.640Z,4.43
2017-12-27T18:07:23.184Z,5.67
2017-12-27T18:09:50.952Z,5.00
2017-12-27T18:12:18.478Z,5.30
2017-12-27T18:14:46.867Z,5.40
2017-12-27T18:17:14.413Z,4.73
2017-12-27T18:19:41.951Z,4.37
2017-12-27T18:22:09.514Z,5.17
2017-12-27T18:24:37.049Z,4.23
2017-12-27T18:27:05.195Z,5.57
2017-12-27T18:29:32.769Z,4.40
2017-12-27T18:32:00.393Z,5.07
2017-12-27T18:34:27.924Z,4.90
2017-12-27T18:36:55.500Z,4.53
2017-12-27T18:39:23.039Z,5.73
2017-12-27T18:41:50.616Z,4.13
2017-12-27T18:44:18.214Z,4.43
2017-12-27T18:46:45.753Z,4.03
2017-12-27T18:49:14.114Z,4.70
2017-12-27T18:51:41.733Z,4.60
2017-12-27T18:54:09.287Z,4.30
2017-12-27T18:56:36.818Z,4.60
2017-12-27T18:59:05.129Z,4.83
2017-12-27T19:01:32.715Z,4.50
2017-12-27T19:04:00.243Z,5.80
2017-12-27T19:06:27.781Z,4.97
2017-12-27T19:08:56.119Z,4.47
2017-12-27T19:11:23.649Z,4.53
2017-12-27T19:13:51.220Z,4.87
2017-12-27T19:16:19.396Z,5.10
2017-12-27T19:18:47.312Z,4.37
2017-12-27T19:21:14.899Z,3.70
2017-12-27T19:23:42.498Z,4.20
2017-12-27T19:26:10.027Z,4.20
2017-12-27T19:28:37.570Z,4.70
2017-12-27T19:31:05.125Z,4.50
2017-12-27T19:33:32.659Z,4.90
2017-12-27T19:36:00.232Z,4.90
2017-12-27T19:38:28.579Z,4.70
2017-12-27T19:40:56.134Z,5.20
2017-12-27T19:43:23.762Z,4.83
2017-12-27T19:45:51.292Z,4.87
2017-12-27T19:48:19.610Z,5.00
2017-12-27T19:50:47.157Z,5.37
2017-12-27T19:53:14.714Z,4.57
2017-12-27T19:55:42.274Z,5.20
2017-12-27T19:58:10.045Z,4.70
2017-12-27T20:00:37.557Z,4.93
2017-12-27T20:03:05.085Z,4.90
2017-12-27T20:05:32.642Z,5.10
2017-12-27T20:08:00.166Z,6.80
2017-12-27T20:10:27.738Z,5.87
2017-12-27T20:12:55.305Z,6.00
2017-12-27T20:15:22.940Z,5.93
2017-12-27T20:17:50.491Z,6.30
2017-12-27T20:20:18.035Z,5.93
2017-12-27T20:22:45.618Z,6.40
2017-12-27T20:25:13.245Z,6.03
2017-12-27T20:27:40.792Z,6.07
2017-12-27T20:30:08.361Z,6.40
2017-12-27T20:32:35.984Z,6.30
2017-12-27T20:35:03.639Z,6.30
2017-12-27T20:37:31.223Z,6.57
2017-12-27T20:39:58.752Z,5.70
2017-12-27T20:42:26.291Z,6.33
2017-12-27T20:44:53.846Z,6.10
2017-12-27T20:47:21.384Z,5.83
2017-12-27T20:49:50.028Z,6.53
2017-12-27T20:52:17.625Z,7.63
2017-12-27T20:54:45.237Z,7.20
2017-12-27T20:57:12.793Z,7.10
2017-12-27T20:59:40.351Z,7.00
2017-12-27T21:02:07.913Z,7.80
2017-12-27T21:04:35.486Z,7.73
2017-12-27T21:07:03.089Z,7.67
2017-12-27T21:09:30.624Z,6.97
2017-12-27T21:11:58.201Z,7.77
2017-12-27T21:14:25.774Z,7.03
2017-12-27T21:16:53.320Z,7.50
2017-12-27T21:19:20.856Z,7.47
2017-12-27T21:21:48.421Z,7.40
2017-12-27T21:24:15.987Z,6.93
2017-12-27T21:26:43.535Z,7.20
2017-12-27T21:29:11.120Z,8.00
2017-12-27T21:31:38.689Z,6.30
2017-12-27T21:34:06.640Z,7.03
2017-12-27T21:36:34.370Z,7.20
2017-12-27T21:39:01.925Z,7.10
2017-12-27T21:41:29.665Z,6.93
2017-12-27T21:43:57.257Z,7.80
2017-12-27T21:46:24.934Z,7.60
2017-12-27T21:48:58.221Z,6.93
2017-12-27T21:51:25.772Z,8.10
2017-12-27T21:53:53.350Z,6.83
2017-12-27T21:56:20.879Z,7.00
2017-12-27T21:58:54.039Z,5.90
2017-12-27T22:01:27.988Z,7.57
2017-12-27T22:03:55.677Z,6.70
2017-12-27T22:06:23.207Z,7.67
2017-12-27T22:08:50.749Z,6.80
2017-12-27T22:11:18.342Z,6.83
2017-12-27T22:13:48.179Z,6.93
2017-12-27T22:16:15.779Z,6.53
2017-12-27T22:18:44.066Z,6.40
2017-12-27T22:21:12.400Z,6.60
2017-12-27T22:23:39.932Z,5.47
2017-12-27T22:26:07.489Z,5.87
2017-12-27T22:28:35.037Z,5.90
2017-12-27T22:31:02.598Z,5.47
2017-12-27T22:33:30.111Z,6.10
2017-12-27T22:35:57.702Z,5.73
2017-12-27T22:38:26.016Z,5.73
2017-12-27T22:40:53.526Z,5.50
2017-12-27T22:43:21.864Z,5.10
2017-12-27T22:45:49.442Z,5.53
2017-12-27T22:48:17.006Z,6.20
2017-12-27T22:50:44.546Z,5.13
2017-12-27T22:53:13.961Z,5.23
2017-12-27T22:55:41.518Z,5.80
2017-12-27T22:58:09.046Z,5.03
2017-12-27T23:00:36.648Z,5.70
2017-12-27T23:03:04.170Z,4.67
2017-12-27T23:05:31.725Z,4.87
2017-12-27T23:07:59.295Z,4.67
2017-12-27T23:10:26.825Z,4.70
2017-12-27T23:12:54.403Z,4.47
2017-12-27T23:15:22.134Z,4.90
2017-12-27T23:17:49.671Z,4.47
2017-12-27T23:20:17.218Z,4.57
2017-12-27T23:22:44.785Z,3.80
2017-12-27T23:25:12.314Z,3.80
2017-12-27T23:27:39.886Z,4.30
2017-12-27T23:30:07.400Z,4.30
2017-12-27T23:32:35.694Z,4.30
2017-12-27T23:35:03.306Z,4.53
2017-12-27T23:37:31.341Z,3.57
2017-12-27T23:39:58.912Z,4.27
2017-12-27T23:42:26.467Z,4.37
2017-12-27T23:44:54.005Z,4.67
2017-12-27T23:47:21.577Z,3.93
2017-12-27T23:49:49.103Z,4.00
2017-12-27T23:52:16.727Z,4.83
2017-12-27T23:54:44.392Z,4.53
2017-12-27T23:57:11.989Z,4.30
2017-12-27T23:59:40.359Z,4.73
